Time;durP1;ratioP1;P1;durP2;ratioP2;P2;SDS_P1;SDS_P2;PMS_P1;PMS_P2;Temp;Humidity;BMP_temperature;BMP_pressure;BME280_temperature;BME280_humidity;BME280_pressure;Samples;Min_cycle;Max_cycle;Signal;HPM_P1;HPM_P2
2022/03/02 00:01:29;;;;;;;27.65;12.88;;;;;;;3.32;59.87;100320.22;3141780;28;20102;-68
2022/03/02 00:03:01;;;;;;;26.77;13.15;;;;;;;3.28;60.24;100312.50;3138314;28;20048;-66
2022/03/02 00:04:35;;;;;;;24.50;12.27;;;;;;;3.27;60.31;100308.25;3142183;28;20052;-66
2022/03/02 00:06:07;;;;;;;23.00;11.90;;;;;;;3.17;60.41;100302.31;3144266;28;20444;-66
2022/03/02 00:07:39;;;;;;;22.73;11.57;;;;;;;3.25;60.35;100309.97;3138489;28;20116;-67
2022/03/02 00:09:12;;;;;;;21.88;11.98;;;;;;;3.24;60.51;100318.56;3145613;28;20389;-67
2022/03/02 00:10:44;;;;;;;22.33;12.10;;;;;;;3.24;60.51;100318.56;3139912;28;20056;-67
2022/03/02 00:12:16;;;;;;;22.83;12.35;;;;;;;3.22;60.50;100321.13;3140613;28;20084;-67
2022/03/02 00:13:49;;;;;;;27.92;13.00;;;;;;;3.19;60.65;100319.47;3143821;28;20060;-67
2022/03/02 00:15:22;;;;;;;26.98;13.45;;;;;;;3.24;60.59;100316.00;3136981;28;20059;-67
2022/03/02 00:16:55;;;;;;;28.17;13.95;;;;;;;3.23;60.49;100310.00;3144826;28;20473;-68
2022/03/02 00:18:27;;;;;;;;;;;;;;;3.07;60.72;100313.53;3138821;28;20517;-68
2022/03/02 00:20:01;;;;;;;24.35;11.20;;;;;;;3.14;60.65;100302.34;3137729;28;20004;-68
2022/03/02 00:21:33;;;;;;;24.02;12.43;;;;;;;3.15;60.59;100293.75;3151118;28;20052;-69
2022/03/02 00:23:05;;;;;;;29.45;12.35;;;;;;;3.19;60.66;100311.75;3146194;28;20509;-68
2022/03/02 00:24:37;;;;;;;23.58;11.80;;;;;;;3.19;60.75;100309.16;3156553;28;20052;-67
2022/03/02 00:26:09;;;;;;;25.58;12.05;;;;;;;3.23;60.52;100312.56;3152540;28;20130;-67
2022/03/02 00:27:41;;;;;;;25.75;11.52;;;;;;;3.24;60.63;100297.97;3152973;28;20060;-67
2022/03/02 00:29:13;;;;;;;24.52;10.27;;;;;;;3.19;60.67;100301.44;3152468;28;20114;-66
2022/03/02 00:30:45;;;;;;;20.88;11.02;;;;;;;3.15;60.67;100301.47;3154658;28;20056;-67
2022/03/02 00:32:17;;;;;;;17.45;9.13;;;;;;;2.93;60.86;100282.75;3153892;28;20190;-67
2022/03/02 00:33:48;;;;;;;15.88;8.20;;;;;;;3.00;61.32;100301.56;3157196;28;20498;-67
2022/03/02 00:35:22;;;;;;;20.67;8.88;;;;;;;2.94;61.49;100300.75;3146678;28;20052;-67
2022/03/02 00:36:54;;;;;;;17.15;8.52;;;;;;;2.91;61.65;100295.59;3155329;28;20161;-67
2022/03/02 00:38:26;;;;;;;15.90;8.32;;;;;;;2.89;61.88;100293.91;3158114;28;20052;-67
2022/03/02 00:39:58;;;;;;;18.85;8.70;;;;;;;2.92;61.63;100296.47;3150781;28;20052;-68
2022/03/02 00:41:30;;;;;;;18.33;9.20;;;;;;;2.91;61.81;100295.59;3156432;28;20052;-67
2022/03/02 00:43:03;;;;;;;19.63;8.77;;;;;;;2.91;61.83;100297.34;3157522;28;20068;-67
2022/03/02 00:44:35;;;;;;;16.83;8.32;;;;;;;2.88;62.13;100294.78;3153896;28;20048;-67
2022/03/02 00:46:07;;;;;;;16.60;8.63;;;;;;;2.84;62.38;100299.09;3152898;28;20063;-67
2022/03/02 00:47:39;;;;;;;22.13;9.52;;;;;;;2.80;62.38;100286.25;3149541;28;20040;-68
2022/03/02 00:49:11;;;;;;;17.38;9.57;;;;;;;2.73;62.54;100281.13;3156982;28;20129;-68
2022/03/02 00:50:45;;;;;;;18.83;9.20;;;;;;;2.74;62.46;100287.13;3158355;28;20059;-68
2022/03/02 00:52:18;;;;;;;17.80;9.07;;;;;;;2.66;62.85;100274.34;3152724;28;20044;-68
2022/03/02 00:53:51;;;;;;;15.50;8.60;;;;;;;2.68;62.89;100277.72;3149424;28;20102;-68
2022/03/02 00:55:23;;;;;;;18.92;9.38;;;;;;;2.67;62.75;100275.19;3148047;28;20056;-68
2022/03/02 00:56:55;;;;;;;16.90;9.02;;;;;;;2.68;63.10;100276.88;3153470;28;20045;-68
2022/03/02 00:58:27;;;;;;;18.00;9.15;;;;;;;2.63;63.26;100278.63;3146276;28;20044;-68
2022/03/02 00:59:59;;;;;;;17.30;9.75;;;;;;;2.56;63.64;100276.94;3153963;28;20525;-68
2022/03/02 01:01:31;;;;;;;23.58;9.52;;;;;;;2.49;63.73;100273.56;3153136;28;20122;-68
2022/03/02 01:03:03;;;;;;;20.10;9.50;;;;;;;2.44;63.76;100272.72;3145945;28;20048;-68
2022/03/02 01:04:35;;;;;;;18.73;9.57;;;;;;;2.44;63.95;100277.84;3153377;28;20103;-68
2022/03/02 01:06:09;;;;;;;19.75;9.10;;;;;;;2.46;63.87;100271.00;3146328;28;20158;-68
2022/03/02 01:07:41;;;;;;;20.75;10.25;;;;;;;2.49;63.78;100268.41;3145971;28;20053;-67
2022/03/02 01:09:13;;;;;;;16.25;8.85;;;;;;;2.50;63.84;100273.53;3154470;28;20052;-68
2022/03/02 01:10:45;;;;;;;24.10;9.70;;;;;;;2.46;63.88;100266.72;3147999;28;20093;-68
2022/03/02 01:12:17;;;;;;;18.95;9.35;;;;;;;2.43;64.13;100281.31;3151248;28;20101;-68
2022/03/02 01:13:49;;;;;;;19.27;9.60;;;;;;;2.43;64.18;100271.88;3154863;28;20445;-68
2022/03/02 01:15:21;;;;;;;16.85;9.40;;;;;;;2.41;64.25;100275.31;3157291;28;20056;-68
2022/03/02 01:16:53;;;;;;;19.27;9.02;;;;;;;2.39;64.30;100272.72;3153812;28;20052;-68
2022/03/02 01:18:25;;;;;;;18.48;9.27;;;;;;;2.32;64.46;100254.78;3151361;28;20088;-67
2022/03/02 01:19:57;;;;;;;22.58;9.57;;;;;;;2.32;64.49;100265.06;3149169;28;20093;-67
2022/03/02 01:21:30;;;;;;;20.67;8.90;;;;;;;1.94;64.33;100202.69;3152456;28;20129;-67
2022/03/02 01:23:03;;;;;;;20.38;9.98;;;;;;;2.21;64.76;100259.94;3145590;28;20612;-67
2022/03/02 01:24:35;;;;;;;20.60;8.80;;;;;;;2.15;64.60;100247.97;3152035;28;20126;-67
2022/03/02 01:26:07;;;;;;;19.85;9.55;;;;;;;2.08;64.83;100237.75;3149722;28;20085;-68
2022/03/02 01:27:39;;;;;;;16.02;9.30;;;;;;;2.13;64.74;100252.28;3148975;28;20062;-67
2022/03/02 01:29:11;;;;;;;20.20;9.82;;;;;;;1.87;64.85;100218.97;3153596;28;20044;-67
2022/03/02 01:30:43;;;;;;;17.00;8.40;;;;;;;2.10;64.83;100251.41;3145591;28;20071;-67
2022/03/02 01:32:15;;;;;;;21.27;9.45;;;;;;;2.03;64.87;100243.75;3149801;28;20048;-67
2022/03/02 01:33:47;;;;;;;16.92;9.80;;;;;;;2.01;64.95;100248.03;3153979;28;20048;-67
2022/03/02 01:35:19;;;;;;;18.92;9.77;;;;;;;1.64;64.89;100189.94;3154240;28;20498;-67
2022/03/02 01:36:52;;;;;;;15.85;9.18;;;;;;;2.03;64.72;100245.47;3153591;28;20040;-67
2022/03/02 01:38:24;;;;;;;17.02;9.57;;;;;;;1.99;64.95;100243.78;3147030;28;20414;-67
2022/03/02 01:39:56;;;;;;;27.60;13.90;;;;;;;2.00;64.91;100242.91;3147973;28;20048;-68
2022/03/02 01:41:28;;;;;;;19.17;10.20;;;;;;;2.01;64.86;100245.47;3153183;28;20048;-67
2022/03/02 01:43:00;;;;;;;19.42;9.95;;;;;;;1.97;65.05;100240.34;3145359;28;20048;-67
2022/03/02 01:44:31;;;;;;;19.55;9.43;;;;;;;1.82;64.99;100216.41;3150437;28;20044;-67
2022/03/02 01:46:03;;;;;;;18.58;9.43;;;;;;;1.97;65.10;100241.19;3155287;28;20509;-67
2022/03/02 01:47:35;;;;;;;16.88;9.50;;;;;;;1.61;65.29;100187.38;3149878;28;20137;-67
2022/03/02 01:49:07;;;;;;;18.40;9.30;;;;;;;1.94;65.23;100237.78;3153005;28;20048;-67
2022/03/02 01:50:39;;;;;;;19.00;9.48;;;;;;;1.92;65.28;100242.91;3147274;28;20044;-67
2022/03/02 01:52:12;;;;;;;18.10;9.50;;;;;;;1.87;65.49;100231.81;3148850;28;20047;-68
2022/03/02 01:53:45;;;;;;;20.13;9.30;;;;;;;1.87;65.56;100234.38;3155423;28;20047;-68
2022/03/02 01:55:17;;;;;;;20.77;10.30;;;;;;;1.89;65.62;100237.78;3149500;28;20045;-68
2022/03/02 01:56:49;;;;;;;20.20;9.23;;;;;;;1.89;65.70;100231.78;3152271;28;20321;-68
2022/03/02 01:58:21;;;;;;;20.35;10.05;;;;;;;1.88;65.77;100225.81;3148155;28;20057;-68
2022/03/02 01:59:53;;;;;;;19.33;9.95;;;;;;;1.89;65.74;100231.78;3145979;28;20048;-68
2022/03/02 02:01:25;;;;;;;18.55;11.55;;;;;;;1.85;66.04;100230.13;3152024;28;20109;-68
2022/03/02 02:02:57;;;;;;;18.05;10.82;;;;;;;1.84;65.96;100220.72;3152912;28;20449;-68
2022/03/02 02:04:29;;;;;;;18.95;10.10;;;;;;;1.81;65.99;100219.84;3151312;28;20051;-68
2022/03/02 02:06:01;;;;;;;19.83;10.13;;;;;;;1.85;66.01;100222.41;3156478;28;20048;-68
2022/03/02 02:07:33;;;;;;;18.08;10.43;;;;;;;1.85;65.79;100210.41;3156848;28;20056;-68
2022/03/02 02:09:09;;;;;;;19.48;11.07;;;;;;;1.67;65.89;100184.78;3152546;28;20044;-68
2022/03/02 02:10:40;;;;;;;22.10;10.65;;;;;;;1.84;66.09;100211.28;3148930;28;20533;-68
2022/03/02 02:12:12;;;;;;;19.45;10.55;;;;;;;1.83;66.11;100209.56;3148469;28;20430;-68
2022/03/02 02:13:43;;;;;;;21.35;10.40;;;;;;;1.73;65.91;100193.34;3153263;28;20128;-69
2022/03/02 02:15:15;;;;;;;17.60;9.98;;;;;;;1.82;66.28;100205.28;3144409;28;20189;-68
2022/03/02 02:16:47;;;;;;;16.73;9.15;;;;;;;1.77;66.11;100202.72;3152396;28;20532;-68
2022/03/02 02:18:19;;;;;;;25.23;11.70;;;;;;;1.78;66.24;100204.44;3147206;28;20052;-68
2022/03/02 02:19:51;;;;;;;40.35;15.95;;;;;;;1.77;66.38;100201.88;3145458;28;20045;-68
2022/03/02 02:21:24;;;;;;;25.05;12.05;;;;;;;1.77;66.48;100204.44;3153317;28;20051;-68
2022/03/02 02:22:56;;;;;;;20.92;11.68;;;;;;;1.69;66.44;100193.34;3147884;28;20052;-66
2022/03/02 02:24:28;;;;;;;23.60;11.95;;;;;;;1.65;66.70;100186.50;3147486;28;20100;-66
2022/03/02 02:26:00;;;;;;;19.73;11.23;;;;;;;1.70;66.68;100202.75;3154475;28;20040;-66
2022/03/02 02:27:31;;;;;;;22.27;10.80;;;;;;;1.64;66.87;100195.06;3145746;28;20859;-66
2022/03/02 02:29:05;;;;;;;23.35;11.07;;;;;;;1.70;66.85;100200.19;3151805;28;20501;-66
2022/03/02 02:30:38;;;;;;;24.35;11.90;;;;;;;1.67;66.89;100205.34;3152724;28;20044;-66
2022/03/02 02:32:10;;;;;;;22.48;11.70;;;;;;;1.32;66.89;100147.22;3147944;28;20548;-66
2022/03/02 02:33:43;;;;;;;20.23;11.77;;;;;;;1.66;66.91;100201.91;3152741;28;20056;-66
2022/03/02 02:35:14;;;;;;;25.90;11.55;;;;;;;1.66;66.99;100207.06;3154157;28;20114;-66
2022/03/02 02:36:48;;;;;;;17.90;10.13;;;;;;;1.68;67.25;100207.88;3148747;28;20049;-66
2022/03/02 02:38:21;;;;;;;22.58;10.35;;;;;;;1.65;67.06;100207.03;3156190;28;20071;-67
2022/03/02 02:39:54;;;;;;;17.08;9.52;;;;;;;1.65;67.12;100196.78;3146228;28;20049;-66
2022/03/02 02:41:26;;;;;;;21.85;11.32;;;;;;;1.63;67.05;100203.63;3154555;28;20086;-66
2022/03/02 02:42:58;;;;;;;19.52;10.25;;;;;;;1.65;67.00;100205.31;3144990;28;20060;-66
2022/03/02 02:44:30;;;;;;;16.77;9.35;;;;;;;1.66;66.83;100201.91;3146525;28;20098;-66
2022/03/02 02:46:02;;;;;;;17.65;9.90;;;;;;;1.67;66.89;100202.78;3151446;28;20105;-66
2022/03/02 02:47:33;;;;;;;17.80;10.27;;;;;;;1.66;66.71;100194.22;3144602;28;20048;-66
2022/03/02 02:49:05;;;;;;;20.80;10.02;;;;;;;1.67;66.55;100195.91;3152184;28;20547;-67
2022/03/02 02:50:37;;;;;;;17.42;8.90;;;;;;;1.67;66.55;100195.06;3146998;28;20045;-66
2022/03/02 02:52:11;;;;;;;14.85;9.20;;;;;;;1.66;66.51;100189.09;3150977;28;20060;-66
2022/03/02 02:53:43;;;;;;;20.77;10.15;;;;;;;1.65;66.53;100189.06;3153130;28;20052;-66
2022/03/02 02:55:16;;;;;;;18.25;9.95;;;;;;;1.66;66.44;100189.09;3148947;28;20056;-66
2022/03/02 02:56:48;;;;;;;;;;;;;;;1.49;66.35;100185.69;3152550;28;20059;-66
2022/03/02 02:58:20;;;;;;;16.70;8.02;;;;;;;1.53;66.64;100187.38;3151681;28;20586;-66
2022/03/02 02:59:52;;;;;;;17.05;9.00;;;;;;;1.52;66.47;100178.00;3144739;28;20052;-67
2022/03/02 03:01:24;;;;;;;20.35;9.25;;;;;;;1.61;66.51;100189.94;3153138;28;20455;-67
2022/03/02 03:02:56;;;;;;;14.90;8.52;;;;;;;1.43;66.59;100154.91;3150584;28;20106;-66
2022/03/02 03:04:28;;;;;;;14.55;8.63;;;;;;;1.61;66.22;100189.94;3148187;28;20044;-66
2022/03/02 03:06:00;;;;;;;16.50;8.68;;;;;;;1.60;66.25;100189.09;3153146;28;20047;-66
2022/03/02 03:07:34;;;;;;;23.15;9.60;;;;;;;1.62;66.32;100189.09;3156846;28;20086;-66
2022/03/02 03:09:06;;;;;;;21.90;9.18;;;;;;;1.58;66.35;100186.53;3154336;28;20066;-67
2022/03/02 03:10:38;;;;;;;17.92;9.45;;;;;;;1.58;66.48;100186.53;3152232;28;20048;-67
2022/03/02 03:12:10;;;;;;;23.63;9.98;;;;;;;1.58;66.66;100181.38;3149872;28;20048;-67
2022/03/02 03:13:43;;;;;;;19.52;9.20;;;;;;;1.57;66.56;100184.81;3153161;28;20070;-66
2022/03/02 03:15:17;;;;;;;15.88;8.95;;;;;;;1.55;66.57;100180.56;3144782;28;20057;-67
2022/03/02 03:16:49;;;;;;;16.15;8.75;;;;;;;1.53;66.48;100180.53;3149047;28;20563;-66
2022/03/02 03:18:21;;;;;;;19.63;9.68;;;;;;;1.26;66.69;100140.41;3153478;28;20048;-66
2022/03/02 03:19:53;;;;;;;21.88;9.63;;;;;;;1.54;66.62;100186.56;3151938;28;20056;-66
2022/03/02 03:21:24;;;;;;;18.15;9.95;;;;;;;1.53;66.84;100188.25;3149879;28;24324;-66
2022/03/02 03:22:58;;;;;;;22.08;10.23;;;;;;;1.52;66.64;100188.25;3148816;28;20048;-68
2022/03/02 03:24:30;;;;;;;21.60;10.10;;;;;;;1.51;66.70;100184.84;3145933;28;20052;-69
2022/03/02 03:26:02;;;;;;;17.25;9.57;;;;;;;1.47;66.77;100179.72;3153941;28;20089;-68
2022/03/02 03:27:34;;;;;;;20.10;9.82;;;;;;;1.01;66.92;100111.38;3150200;28;20522;-68
2022/03/02 03:29:05;;;;;;;20.80;10.55;;;;;;;1.47;66.99;100188.25;3148958;28;20052;-68
2022/03/02 03:30:37;;;;;;;19.75;10.13;;;;;;;1.46;67.08;100180.56;3152148;28;20052;-68
2022/03/02 03:32:09;;;;;;;19.73;9.88;;;;;;;1.47;67.01;100189.97;3155252;28;20067;-68
2022/03/02 03:33:42;;;;;;;19.08;9.85;;;;;;;1.46;67.05;100180.56;3154082;28;20554;-69
2022/03/02 03:35:15;;;;;;;19.13;10.13;;;;;;;1.41;67.01;100177.16;3151326;28;20129;-68
2022/03/02 03:36:47;;;;;;;21.13;10.10;;;;;;;1.42;67.08;100190.00;3148291;28;20048;-66
2022/03/02 03:38:20;;;;;;;28.75;10.73;;;;;;;1.44;67.18;100187.41;3155649;28;20054;-66
2022/03/02 03:39:52;;;;;;;21.27;10.82;;;;;;;1.37;67.28;100184.00;3146980;28;20051;-66
2022/03/02 03:41:24;;;;;;;21.27;9.95;;;;;;;1.40;67.10;100186.56;3152646;28;20044;-67
2022/03/02 03:42:56;;;;;;;17.80;9.85;;;;;;;1.39;67.25;100184.88;3155170;28;20048;-67
2022/03/02 03:44:28;;;;;;;21.55;10.55;;;;;;;1.39;67.42;100182.31;3154513;28;20048;-67
2022/03/02 03:46:00;;;;;;;18.05;10.05;;;;;;;1.39;67.38;100184.00;3153980;28;20409;-67
2022/03/02 03:47:33;;;;;;;19.83;10.00;;;;;;;1.38;67.35;100179.72;3150257;28;20498;-66
2022/03/02 03:49:05;;;;;;;18.70;10.35;;;;;;;1.35;67.37;100178.00;3148804;28;20052;-65
2022/03/02 03:50:37;;;;;;;18.38;9.93;;;;;;;1.34;67.33;100181.44;3156041;28;20126;-65
2022/03/02 03:52:09;;;;;;;20.48;10.18;;;;;;;1.13;67.30;100144.69;3158739;28;20440;-65
2022/03/02 03:53:42;;;;;;;17.98;10.20;;;;;;;1.30;67.35;100175.47;3154416;28;20127;-66
2022/03/02 03:55:16;;;;;;;19.83;10.68;;;;;;;1.19;67.36;100159.22;3156020;28;20132;-66
2022/03/02 03:56:47;;;;;;;;;;;;;;;1.06;67.72;100172.91;3147673;28;20052;-65
2022/03/02 03:58:19;;;;;;;21.30;10.43;;;;;;;1.08;68.00;100174.63;3155580;28;19924;-65
2022/03/02 03:59:50;;;;;;;20.38;11.13;;;;;;;1.05;67.71;100156.66;3149163;28;20390;-66
2022/03/02 04:01:22;;;;;;;22.17;10.80;;;;;;;1.11;68.03;100174.63;3153961;28;20049;-65
2022/03/02 04:02:54;;;;;;;21.27;11.60;;;;;;;1.10;68.04;100170.34;3157712;28;20117;-66
2022/03/02 04:04:26;;;;;;;22.88;12.23;;;;;;;1.09;68.11;100173.75;3148530;28;20071;-66
2022/03/02 04:05:58;;;;;;;22.48;12.90;;;;;;;1.07;68.14;100174.63;3155698;28;20148;-66
2022/03/02 04:07:30;;;;;;;22.38;13.00;;;;;;;1.03;68.01;100176.31;3147181;28;20510;-66
2022/03/02 04:09:03;;;;;;;27.83;13.73;;;;;;;1.03;68.21;100171.19;3149638;28;20048;-66
2022/03/02 04:10:35;;;;;;;22.25;13.38;;;;;;;0.96;68.30;100169.50;3153958;28;20048;-66
2022/03/02 04:12:08;;;;;;;29.30;15.05;;;;;;;0.95;68.29;100166.94;3146216;28;20106;-66
2022/03/02 04:13:40;;;;;;;28.30;16.02;;;;;;;0.70;68.34;100131.03;3152147;28;20044;-66
2022/03/02 04:15:13;;;;;;;30.48;15.32;;;;;;;0.93;68.47;100169.50;3152998;28;20464;-66
2022/03/02 04:16:45;;;;;;;26.08;16.05;;;;;;;0.60;68.40;100114.81;3148933;28;20128;-66
2022/03/02 04:18:16;;;;;;;24.58;14.48;;;;;;;0.78;68.59;100146.44;3155455;28;20055;-66
2022/03/02 04:19:48;;;;;;;27.48;14.60;;;;;;;0.89;68.75;100168.66;3146408;28;20134;-66
2022/03/02 04:21:20;;;;;;;31.48;16.00;;;;;;;0.89;68.83;100172.94;3150739;28;20044;-66
2022/03/02 04:22:52;;;;;;;28.15;16.15;;;;;;;0.87;68.77;100170.34;3152093;28;20508;-66
2022/03/02 04:24:25;;;;;;;27.15;15.70;;;;;;;0.87;68.76;100169.50;3146025;28;20053;-66
2022/03/02 04:25:56;;;;;;;29.38;15.50;;;;;;;0.81;68.81;100164.38;3153113;28;20048;-66
2022/03/02 04:27:28;;;;;;;27.00;14.77;;;;;;;0.79;68.98;100166.94;3156076;28;20043;-66
2022/03/02 04:29:00;;;;;;;28.15;15.60;;;;;;;0.79;68.95;100161.81;3156020;28;20098;-66
2022/03/02 04:30:33;;;;;;;31.10;14.85;;;;;;;0.57;68.90;100130.19;3154198;28;20044;-66
2022/03/02 04:32:05;;;;;;;25.38;14.52;;;;;;;0.74;69.19;100160.97;3148470;28;20050;-66
2022/03/02 04:33:37;;;;;;;30.63;15.02;;;;;;;0.71;69.27;100162.66;3150981;28;20052;-66
2022/03/02 04:35:11;;;;;;;30.42;15.18;;;;;;;0.66;69.31;100153.25;3152412;28;20045;-66
2022/03/02 04:36:43;;;;;;;29.50;16.02;;;;;;;0.64;69.36;100152.38;3157688;28;20158;-66
2022/03/02 04:38:15;;;;;;;28.75;16.42;;;;;;;0.64;69.62;100160.09;3154320;28;20045;-66
2022/03/02 04:39:48;;;;;;;29.67;16.02;;;;;;;0.64;69.50;100157.53;3145589;28;20469;-66
2022/03/02 04:41:20;;;;;;;34.13;16.20;;;;;;;0.51;69.45;100143.00;3149634;28;20044;-66
2022/03/02 04:42:52;;;;;;;32.72;16.05;;;;;;;0.59;69.60;100154.13;3151812;28;20048;-66
2022/03/02 04:44:23;;;;;;;37.50;16.27;;;;;;;0.59;69.74;100158.38;3152448;28;20101;-66
2022/03/02 04:45:55;;;;;;;34.10;17.02;;;;;;;0.54;69.95;100150.69;3152123;28;20056;-66
2022/03/02 04:47:27;;;;;;;36.80;16.98;;;;;;;0.57;69.95;100152.41;3156811;28;20105;-66
2022/03/02 04:49:10;;;;;;;33.38;17.10;;;;;;;0.55;70.21;100157.50;3148093;28;20051;-66
2022/03/02 04:50:42;;;;;;;32.67;17.27;;;;;;;0.52;70.09;100154.94;3155982;28;20044;-67
2022/03/02 04:52:13;;;;;;;31.45;17.17;;;;;;;0.45;70.25;100143.84;3157874;28;20056;-66
2022/03/02 04:53:46;;;;;;;33.47;16.55;;;;;;;0.51;70.36;100158.38;3156761;28;20134;-66
2022/03/02 04:55:18;;;;;;;32.78;17.17;;;;;;;0.51;70.40;100158.38;3151220;28;20047;-66
2022/03/02 04:56:50;;;;;;;35.67;18.10;;;;;;;0.50;70.40;100161.78;3155156;28;20052;-67
2022/03/02 04:58:22;;;;;;;39.20;18.20;;;;;;;0.51;70.58;100157.53;3155214;28;20528;-67
2022/03/02 04:59:53;;;;;;;45.38;21.38;;;;;;;0.51;70.70;100147.28;3157571;28;20074;-66
2022/03/02 05:01:25;;;;;;;38.58;21.23;;;;;;;0.52;70.65;100151.53;3149198;28;20064;-66
2022/03/02 05:02:58;;;;;;;38.60;20.75;;;;;;;0.51;70.56;100155.81;3155278;28;20109;-67
2022/03/02 05:04:30;;;;;;;40.15;21.02;;;;;;;0.52;71.07;100159.22;3146980;28;20063;-67
2022/03/02 05:06:02;;;;;;;42.75;22.73;;;;;;;0.52;70.91;100152.38;3153800;28;20056;-67
2022/03/02 05:07:34;;;;;;;38.13;19.83;;;;;;;0.50;71.11;100153.22;3147771;28;20041;-66
2022/03/02 05:09:06;;;;;;;35.05;18.58;;;;;;;0.52;70.96;100146.41;3146881;28;20509;-67
2022/03/02 05:10:39;;;;;;;34.80;19.45;;;;;;;0.56;71.01;100154.13;3152650;28;20107;-67
2022/03/02 05:12:11;;;;;;;41.83;19.30;;;;;;;0.55;71.03;100154.94;3150302;28;20051;-67
2022/03/02 05:13:43;;;;;;;38.92;17.98;;;;;;;0.54;71.12;100142.16;3150851;28;20513;-67
2022/03/02 05:15:16;;;;;;;35.05;18.30;;;;;;;0.39;71.28;100120.78;3156885;28;20458;-67
2022/03/02 05:16:48;;;;;;;37.30;19.02;;;;;;;0.56;71.17;100143.88;3156959;28;20085;-67
2022/03/02 05:18:20;;;;;;;35.83;18.90;;;;;;;0.63;71.27;100154.97;3152971;28;20043;-67
2022/03/02 05:19:52;;;;;;;42.80;19.35;;;;;;;0.61;71.26;100149.81;3156637;28;20581;-67
2022/03/02 05:21:24;;;;;;;38.17;19.38;;;;;;;0.67;71.32;100157.53;3150894;28;20044;-67
2022/03/02 05:22:55;;;;;;;40.58;20.33;;;;;;;0.66;71.45;100153.25;3151193;28;20155;-67
2022/03/02 05:24:27;;;;;;;41.13;20.30;;;;;;;0.73;71.54;100150.69;3145235;28;20133;-67
2022/03/02 05:26:01;;;;;;;40.97;20.27;;;;;;;0.76;71.47;100150.69;3153799;28;20114;-67
2022/03/02 05:27:32;;;;;;;37.15;19.27;;;;;;;0.49;71.48;100111.38;3146503;28;20052;-67
2022/03/02 05:29:04;;;;;;;38.88;20.50;;;;;;;0.80;71.54;100154.97;3147288;28;20066;-67
2022/03/02 05:30:36;;;;;;;38.67;20.27;;;;;;;0.84;71.59;100149.00;3152974;28;20044;-67
2022/03/02 05:32:09;;;;;;;43.38;20.10;;;;;;;0.89;71.48;100147.28;3145568;28;20094;-66
2022/03/02 05:33:41;;;;;;;35.83;18.25;;;;;;;0.91;71.44;100143.00;3150193;28;20095;-67
2022/03/02 05:35:13;;;;;;;36.22;18.60;;;;;;;0.98;71.51;100146.44;3150772;28;20044;-67
2022/03/02 05:36:43;;;;;;;38.22;20.02;;;;;;;1.01;71.30;100146.44;3147105;28;20106;-67
2022/03/02 05:38:15;;;;;;;38.40;19.45;;;;;;;1.07;71.53;100141.28;3153187;28;20939;-67
2022/03/02 05:39:47;;;;;;;41.30;20.45;;;;;;;1.10;71.49;100147.28;3154653;28;20102;-68
2022/03/02 05:41:22;;;;;;;38.42;20.25;;;;;;;1.15;71.51;100144.69;3153904;28;20047;-68
2022/03/02 05:42:55;;;;;;;38.67;21.08;;;;;;;0.90;71.50;100105.41;3153854;28;20117;-67
2022/03/02 05:44:27;;;;;;;37.55;19.25;;;;;;;1.23;71.41;100154.94;3157425;28;20052;-67
2022/03/02 05:45:59;;;;;;;38.20;19.80;;;;;;;1.28;71.39;100145.53;3154192;28;20040;-67
2022/03/02 05:47:31;;;;;;;35.47;17.85;;;;;;;1.32;71.49;100150.66;3151235;28;20106;-67
2022/03/02 05:49:03;;;;;;;37.47;19.77;;;;;;;1.38;71.31;100149.78;3145592;28;20098;-67
2022/03/02 05:50:35;;;;;;;40.67;19.95;;;;;;;1.44;71.16;100151.47;3151028;28;20501;-67
2022/03/02 05:52:07;;;;;;;39.03;18.85;;;;;;;1.50;71.06;100149.75;3145836;28;20106;-66
2022/03/02 05:53:39;;;;;;;39.45;19.15;;;;;;;1.56;71.08;100161.72;3150205;28;20044;-67
2022/03/02 05:55:11;;;;;;;45.05;20.65;;;;;;;1.61;71.01;100156.59;3150452;28;20101;-68
2022/03/02 05:56:45;;;;;;;43.92;23.50;;;;;;;1.69;70.75;100154.84;3143618;28;20122;-67
2022/03/02 05:58:17;;;;;;;46.75;22.10;;;;;;;1.75;70.79;100157.41;3148204;28;20048;-67
2022/03/02 05:59:49;;;;;;;38.13;20.98;;;;;;;1.81;70.51;100159.94;3152892;28;20052;-66
2022/03/02 06:01:21;;;;;;;42.47;21.00;;;;;;;1.86;70.41;100159.91;3146667;28;20076;-67
2022/03/02 06:02:52;;;;;;;40.83;19.23;;;;;;;1.94;70.26;100158.16;3149158;28;20132;-67
2022/03/02 06:04:23;;;;;;;37.05;19.17;;;;;;;1.98;69.87;100160.72;3147609;28;20254;-67
2022/03/02 06:05:55;;;;;;;39.65;19.25;;;;;;;2.05;69.81;100161.53;3145693;28;20273;-66
2022/03/02 06:07:27;;;;;;;35.47;18.38;;;;;;;2.14;69.64;100161.50;3152186;28;20094;-67
2022/03/02 06:08:59;;;;;;;32.28;17.25;;;;;;;2.23;69.26;100166.59;3148904;28;20048;-68
2022/03/02 06:10:31;;;;;;;40.72;18.48;;;;;;;2.34;68.94;100170.78;3148890;28;20134;-67
2022/03/02 06:12:06;;;;;;;32.50;17.35;;;;;;;2.44;68.75;100170.75;3150804;28;20048;-67
2022/03/02 06:13:38;;;;;;;31.13;17.42;;;;;;;2.54;68.70;100165.53;3145075;28;20048;-68
2022/03/02 06:15:13;;;;;;;37.47;16.65;;;;;;;2.63;68.34;100158.66;3149872;28;20489;-67
2022/03/02 06:16:45;;;;;;;39.05;16.30;;;;;;;2.80;68.03;100165.38;3149349;28;20079;-67
2022/03/02 06:18:17;;;;;;;29.02;15.65;;;;;;;2.96;67.57;100170.38;3145836;28;20460;-67
2022/03/02 06:19:50;;;;;;;32.47;15.95;;;;;;;3.09;67.21;100153.09;3152165;28;20110;-67
2022/03/02 06:21:24;;;;;;;33.90;17.45;;;;;;;3.32;66.82;100158.03;3156548;28;20048;-67
2022/03/02 06:22:56;;;;;;;53.42;17.92;;;;;;;3.48;66.29;100161.31;3152916;28;20114;-68
2022/03/02 06:24:29;;;;;;;36.95;17.75;;;;;;;3.62;65.66;100167.16;3153773;28;20125;-68
2022/03/02 06:26:01;;;;;;;36.85;18.02;;;;;;;3.77;65.38;100163.56;3157298;28;20052;-67
2022/03/02 06:27:34;;;;;;;31.73;16.50;;;;;;;3.93;64.63;100156.50;3152604;28;20076;-66
2022/03/02 06:29:06;;;;;;;;;;;;;;;3.90;64.83;100163.41;3151228;28;20528;-66
2022/03/02 06:30:38;;;;;;;31.05;16.05;;;;;;;4.05;64.19;100152.91;3144692;28;19927;-67
2022/03/02 06:32:10;;;;;;;29.92;15.80;;;;;;;4.24;63.60;100159.53;3151781;28;20506;-67
2022/03/02 06:33:42;;;;;;;36.72;17.02;;;;;;;4.45;63.13;100154.97;3148190;28;20094;-67
2022/03/02 06:35:14;;;;;;;31.90;17.45;;;;;;;4.70;62.56;100158.00;3153190;28;20051;-67
2022/03/02 06:36:49;;;;;;;34.92;16.30;;;;;;;4.82;61.91;100113.09;3150681;28;20581;-67
2022/03/02 06:38:22;;;;;;;30.35;15.38;;;;;;;5.38;61.04;100157.75;3146445;28;20127;-67
2022/03/02 06:39:54;;;;;;;25.98;13.95;;;;;;;5.56;60.28;100149.66;3148396;28;20160;-68
2022/03/02 06:41:30;;;;;;;23.88;13.10;;;;;;;5.56;59.96;100104.88;3152265;28;20048;-66
2022/03/02 06:43:06;;;;;;;24.67;12.32;;;;;;;6.60;59.59;100157.00;3144546;28;20048;-67
2022/03/02 06:44:48;;;;;;;21.20;12.18;;;;;;;7.20;57.71;100148.59;3151839;28;20432;-70
2022/03/02 06:46:30;;;;;;;21.02;11.20;;;;;;;7.74;56.69;100150.59;3145254;28;20838;-67
2022/03/02 06:48:10;;;;;;;18.15;10.20;;;;;;;8.25;55.53;100138.75;3147969;28;20049;-68
2022/03/02 06:49:56;;;;;;;18.60;10.98;;;;;;;8.88;54.28;100144.63;3150091;28;20054;-67
2022/03/02 06:51:31;;;;;;;19.45;11.63;;;;;;;9.67;53.34;100143.66;3149435;28;20036;-68
2022/03/02 06:53:03;;;;;;;21.05;11.35;;;;;;;10.46;51.66;100138.97;3152128;28;20048;-68
2022/03/02 06:54:36;;;;;;;19.02;10.73;;;;;;;11.21;50.43;100142.88;3146063;28;20512;-67
2022/03/02 06:56:08;;;;;;;18.60;10.60;;;;;;;11.88;48.87;100139.97;3150325;28;20056;-67
2022/03/02 06:57:41;;;;;;;19.38;10.50;;;;;;;12.60;46.95;100146.19;3151887;28;20056;-67
2022/03/02 06:59:24;;;;;;;13.50;9.27;;;;;;;13.17;45.40;100139.88;3145014;28;20048;-67
2022/03/02 07:00:59;;;;;;;20.25;11.77;;;;;;;13.70;43.25;100135.47;3148548;28;20048;-67
2022/03/02 07:02:39;;;;;;;14.32;9.73;;;;;;;14.17;42.26;100142.56;3149465;28;20047;-67
2022/03/02 07:04:14;;;;;;;16.85;9.43;;;;;;;14.44;40.75;100147.19;3148486;28;20051;-67
2022/03/02 07:05:46;;;;;;;14.85;9.27;;;;;;;14.80;40.11;100136.44;3151504;28;20056;-66
2022/03/02 07:07:19;;;;;;;19.23;12.60;;;;;;;15.12;39.09;100131.13;3148643;28;20482;-67